sensor_id;sensor_type;location;lat;lon;timestamp;pressure;altitude;pressure_sealevel;temperature;humidity
1926;BME280;964;42.606;23.588;2023-07-20T00:01:47;94238.88;;;44.22;21.67
1926;BME280;964;42.606;23.588;2023-07-20T00:04:14;94247.16;;;44.12;21.69
1926;BME280;964;42.606;23.588;2023-07-20T00:06:41;94251.38;;;43.69;22.53
1926;BME280;964;42.606;23.588;2023-07-20T00:09:07;94255.97;;;43.91;22.46
1926;BME280;964;42.606;23.588;2023-07-20T00:11:37;94248.78;;;43.05;23.22
1926;BME280;964;42.606;23.588;2023-07-20T00:14:04;94261.69;;;43.42;23.21
1926;BME280;964;42.606;23.588;2023-07-20T00:16:31;94246.78;;;43.99;22.39
1926;BME280;964;42.606;23.588;2023-07-20T00:18:58;94247.94;;;43.95;22.66
1926;BME280;964;42.606;23.588;2023-07-20T00:21:25;94238.34;;;43.89;22.69
1926;BME280;964;42.606;23.588;2023-07-20T00:23:52;94236.16;;;43.04;23.49
1926;BME280;964;42.606;23.588;2023-07-20T00:26:18;94235.00;;;42.17;23.91
1926;BME280;964;42.606;23.588;2023-07-20T00:28:46;94226.00;;;43.16;23.46
1926;BME280;964;42.606;23.588;2023-07-20T00:31:13;94223.69;;;43.05;23.49
1926;BME280;964;42.606;23.588;2023-07-20T00:33:39;94222.88;;;43.54;23.21
1926;BME280;964;42.606;23.588;2023-07-20T00:36:06;94213.63;;;42.52;23.72
1926;BME280;964;42.606;23.588;2023-07-20T00:38:33;94211.06;;;42.46;23.70
1926;BME280;964;42.606;23.588;2023-07-20T00:40:59;94209.09;;;41.99;24.38
1926;BME280;964;42.606;23.588;2023-07-20T00:43:26;94210.31;;;41.66;24.50
1926;BME280;964;42.606;23.588;2023-07-20T00:45:55;94203.06;;;42.18;23.69
1926;BME280;964;42.606;23.588;2023-07-20T00:48:22;94188.72;;;42.54;23.50
1926;BME280;964;42.606;23.588;2023-07-20T00:50:49;94189.47;;;43.46;23.22
1926;BME280;964;42.606;23.588;2023-07-20T00:53:16;94195.38;;;43.50;23.02
1926;BME280;964;42.606;23.588;2023-07-20T00:55:43;94188.47;;;43.85;22.68
1926;BME280;964;42.606;23.588;2023-07-20T00:58:10;94192.75;;;42.36;24.06
1926;BME280;964;42.606;23.588;2023-07-20T01:00:37;94188.19;;;43.22;23.29
1926;BME280;964;42.606;23.588;2023-07-20T01:03:05;94192.72;;;42.68;24.13
1926;BME280;964;42.606;23.588;2023-07-20T01:05:38;94189.41;;;43.12;23.62
1926;BME280;964;42.606;23.588;2023-07-20T01:08:11;94186.34;;;42.75;23.62
1926;BME280;964;42.606;23.588;2023-07-20T01:10:44;94184.28;;;42.51;24.08
1926;BME280;964;42.606;23.588;2023-07-20T01:13:14;94191.66;;;42.56;23.38
1926;BME280;964;42.606;23.588;2023-07-20T01:15:41;94188.59;;;42.12;23.81
1926;BME280;964;42.606;23.588;2023-07-20T01:18:09;94189.47;;;42.30;24.11
1926;BME280;964;42.606;23.588;2023-07-20T01:20:37;94197.13;;;42.22;24.06
1926;BME280;964;42.606;23.588;2023-07-20T01:23:26;94184.09;;;42.49;23.54
1926;BME280;964;42.606;23.588;2023-07-20T01:29:22;94197.72;;;41.50;25.22
1926;BME280;964;42.606;23.588;2023-07-20T01:32:00;94202.38;;;42.02;24.21
1926;BME280;964;42.606;23.588;2023-07-20T01:34:29;94202.81;;;41.91;24.75
1926;BME280;964;42.606;23.588;2023-07-20T01:36:56;94195.25;;;42.17;24.40
1926;BME280;964;42.606;23.588;2023-07-20T01:39:24;94187.59;;;41.92;24.80
1926;BME280;964;42.606;23.588;2023-07-20T01:41:51;94195.47;;;42.11;24.37
1926;BME280;964;42.606;23.588;2023-07-20T01:44:17;94201.94;;;42.21;24.79
1926;BME280;964;42.606;23.588;2023-07-20T01:46:44;94196.91;;;42.20;24.70
1926;BME280;964;42.606;23.588;2023-07-20T01:49:13;94196.50;;;41.91;24.26
1926;BME280;964;42.606;23.588;2023-07-20T01:51:39;94190.41;;;42.25;24.15
1926;BME280;964;42.606;23.588;2023-07-20T01:54:06;94185.50;;;42.00;24.62
1926;BME280;964;42.606;23.588;2023-07-20T01:56:32;94192.44;;;41.84;24.67
1926;BME280;964;42.606;23.588;2023-07-20T01:58:59;94186.84;;;42.57;24.19
1926;BME280;964;42.606;23.588;2023-07-20T02:01:26;94192.41;;;42.57;24.15
1926;BME280;964;42.606;23.588;2023-07-20T02:03:53;94191.78;;;43.15;23.96
1926;BME280;964;42.606;23.588;2023-07-20T02:06:21;94197.41;;;42.33;24.34
1926;BME280;964;42.606;23.588;2023-07-20T02:08:48;94196.13;;;43.09;23.76
1926;BME280;964;42.606;23.588;2023-07-20T02:11:15;94187.47;;;42.97;23.40
1926;BME280;964;42.606;23.588;2023-07-20T02:13:41;94187.53;;;42.40;24.72
1926;BME280;964;42.606;23.588;2023-07-20T02:16:08;94179.16;;;42.40;24.24
1926;BME280;964;42.606;23.588;2023-07-20T02:18:34;94181.25;;;41.99;25.07
1926;BME280;964;42.606;23.588;2023-07-20T02:21:02;94186.81;;;41.99;24.89
1926;BME280;964;42.606;23.588;2023-07-20T02:23:30;94186.66;;;42.30;24.40
1926;BME280;964;42.606;23.588;2023-07-20T02:25:57;94184.88;;;42.10;25.04
1926;BME280;964;42.606;23.588;2023-07-20T02:28:23;94178.97;;;42.05;24.30
1926;BME280;964;42.606;23.588;2023-07-20T02:30:50;94178.69;;;41.86;25.26
1926;BME280;964;42.606;23.588;2023-07-20T02:33:16;94180.25;;;41.65;25.36
1926;BME280;964;42.606;23.588;2023-07-20T02:35:43;94188.41;;;41.70;24.69
1926;BME280;964;42.606;23.588;2023-07-20T02:38:10;94194.84;;;42.28;24.21
1926;BME280;964;42.606;23.588;2023-07-20T02:40:38;94182.97;;;42.20;25.07
1926;BME280;964;42.606;23.588;2023-07-20T02:43:04;94184.19;;;42.01;24.17
1926;BME280;964;42.606;23.588;2023-07-20T02:45:31;94180.81;;;42.11;25.08
1926;BME280;964;42.606;23.588;2023-07-20T02:47:57;94179.09;;;41.75;24.74
1926;BME280;964;42.606;23.588;2023-07-20T02:50:24;94167.13;;;41.50;25.42
1926;BME280;964;42.606;23.588;2023-07-20T02:52:51;94162.75;;;40.86;25.55
1926;BME280;964;42.606;23.588;2023-07-20T02:55:17;94159.03;;;41.22;25.48
1926;BME280;964;42.606;23.588;2023-07-20T02:57:45;94157.31;;;41.49;25.31
1926;BME280;964;42.606;23.588;2023-07-20T03:00:13;94140.06;;;41.43;25.22
1926;BME280;964;42.606;23.588;2023-07-20T03:02:41;94151.38;;;41.45;24.81
1926;BME280;964;42.606;23.588;2023-07-20T03:05:08;94151.78;;;41.26;25.13
1926;BME280;964;42.606;23.588;2023-07-20T03:07:35;94149.03;;;41.74;24.99
1926;BME280;964;42.606;23.588;2023-07-20T03:10:02;94161.41;;;41.95;24.18
1926;BME280;964;42.606;23.588;2023-07-20T03:12:29;94163.47;;;41.87;24.06
1926;BME280;964;42.606;23.588;2023-07-20T03:14:58;94167.34;;;41.44;24.60
1926;BME280;964;42.606;23.588;2023-07-20T03:17:25;94174.41;;;41.23;25.04
1926;BME280;964;42.606;23.588;2023-07-20T03:19:51;94162.94;;;41.03;25.48
1926;BME280;964;42.606;23.588;2023-07-20T03:22:18;94163.50;;;41.72;24.29
1926;BME280;964;42.606;23.588;2023-07-20T03:24:44;94174.19;;;41.98;24.79
1926;BME280;964;42.606;23.588;2023-07-20T03:27:11;94178.97;;;41.58;25.12
1926;BME280;964;42.606;23.588;2023-07-20T03:29:38;94178.69;;;41.86;25.01
1926;BME280;964;42.606;23.588;2023-07-20T03:32:06;94182.72;;;42.00;24.06
1926;BME280;964;42.606;23.588;2023-07-20T03:34:33;94193.72;;;42.55;24.11
1926;BME280;964;42.606;23.588;2023-07-20T03:37:00;94198.84;;;42.42;24.12
1926;BME280;964;42.606;23.588;2023-07-20T03:39:26;94195.59;;;42.21;24.64
1926;BME280;964;42.606;23.588;2023-07-20T03:41:53;94191.16;;;42.25;24.19
1926;BME280;964;42.606;23.588;2023-07-20T03:44:20;94191.06;;;42.40;24.55
1926;BME280;964;42.606;23.588;2023-07-20T03:46:46;94190.31;;;42.40;24.21
1926;BME280;964;42.606;23.588;2023-07-20T03:49:14;94183.88;;;42.62;24.05
1926;BME280;964;42.606;23.588;2023-07-20T03:51:41;94185.75;;;42.84;23.56
1926;BME280;964;42.606;23.588;2023-07-20T03:54:08;94189.59;;;42.64;23.94
1926;BME280;964;42.606;23.588;2023-07-20T03:56:34;94187.97;;;42.53;23.56
1926;BME280;964;42.606;23.588;2023-07-20T03:59:01;94181.81;;;42.87;23.68
1926;BME280;964;42.606;23.588;2023-07-20T04:01:28;94184.31;;;43.18;23.60
1926;BME280;964;42.606;23.588;2023-07-20T04:03:55;94182.94;;;42.84;23.27
1926;BME280;964;42.606;23.588;2023-07-20T04:06:24;94179.84;;;42.97;23.39
1926;BME280;964;42.606;23.588;2023-07-20T04:08:50;94179.59;;;43.28;23.16
1926;BME280;964;42.606;23.588;2023-07-20T04:11:17;94187.97;;;43.28;23.17
1926;BME280;964;42.606;23.588;2023-07-20T04:13:43;94178.88;;;43.44;23.24
1926;BME280;964;42.606;23.588;2023-07-20T04:16:10;94181.91;;;43.56;23.26
1926;BME280;964;42.606;23.588;2023-07-20T04:18:37;94174.94;;;43.82;23.30
1926;BME280;964;42.606;23.588;2023-07-20T04:21:03;94175.16;;;43.59;23.52
1926;BME280;964;42.606;23.588;2023-07-20T04:23:31;94187.03;;;43.94;23.16
1926;BME280;964;42.606;23.588;2023-07-20T04:25:58;94176.88;;;43.89;23.39
1926;BME280;964;42.606;23.588;2023-07-20T04:40:10;94167.41;;;44.55;22.71
1926;BME280;964;42.606;23.588;2023-07-20T04:42:37;94164.19;;;44.05;23.03
1926;BME280;964;42.606;23.588;2023-07-20T04:45:04;94165.75;;;43.99;23.12
1926;BME280;964;42.606;23.588;2023-07-20T04:47:31;94161.97;;;44.57;22.30
1926;BME280;964;42.606;23.588;2023-07-20T04:49:58;94159.88;;;44.48;22.28
1926;BME280;964;42.606;23.588;2023-07-20T04:52:24;94164.28;;;44.51;22.70
1926;BME280;964;42.606;23.588;2023-07-20T04:54:51;94162.13;;;44.23;23.03
1926;BME280;964;42.606;23.588;2023-07-20T04:57:19;94154.66;;;44.71;22.97
1926;BME280;964;42.606;23.588;2023-07-20T04:59:47;94156.91;;;44.82;22.79
1926;BME280;964;42.606;23.588;2023-07-20T05:02:14;94149.25;;;44.83;22.91
1926;BME280;964;42.606;23.588;2023-07-20T05:04:40;94158.72;;;44.51;23.50
1926;BME280;964;42.606;23.588;2023-07-20T05:07:07;94158.97;;;43.75;24.06
1926;BME280;964;42.606;23.588;2023-07-20T05:09:34;94163.97;;;43.93;23.84
1926;BME280;964;42.606;23.588;2023-07-20T05:12:00;94152.47;;;44.70;23.47
1926;BME280;964;42.606;23.588;2023-07-20T05:14:28;94154.19;;;45.02;23.67
1926;BME280;964;42.606;23.588;2023-07-20T05:16:55;94152.63;;;45.56;22.73
1926;BME280;964;42.606;23.588;2023-07-20T05:19:21;94146.13;;;45.44;22.69
1926;BME280;964;42.606;23.588;2023-07-20T05:21:48;94156.44;;;45.70;22.95
1926;BME280;964;42.606;23.588;2023-07-20T05:24:15;94150.25;;;45.62;23.39
1926;BME280;964;42.606;23.588;2023-07-20T05:26:41;94151.13;;;45.17;23.11
1926;BME280;964;42.606;23.588;2023-07-20T05:29:08;94155.84;;;44.41;23.46
1926;BME280;964;42.606;23.588;2023-07-20T05:31:36;94161.88;;;44.74;23.71
1926;BME280;964;42.606;23.588;2023-07-20T05:34:02;94148.00;;;45.03;22.67
1926;BME280;964;42.606;23.588;2023-07-20T05:36:29;94135.53;;;45.91;23.23
1926;BME280;964;42.606;23.588;2023-07-20T05:38:56;94128.22;;;46.26;21.86
1926;BME280;964;42.606;23.588;2023-07-20T05:41:22;94124.63;;;46.35;22.21
1926;BME280;964;42.606;23.588;2023-07-20T05:43:49;94132.69;;;46.10;22.06
1926;BME280;964;42.606;23.588;2023-07-20T05:46:16;94133.22;;;46.27;22.24
1926;BME280;964;42.606;23.588;2023-07-20T05:48:44;94134.16;;;46.11;21.61
1926;BME280;964;42.606;23.588;2023-07-20T05:51:10;94144.09;;;45.45;22.93
1926;BME280;964;42.606;23.588;2023-07-20T05:53:37;94152.75;;;45.29;22.67
1926;BME280;964;42.606;23.588;2023-07-20T05:56:05;94144.66;;;45.81;21.99
1926;BME280;964;42.606;23.588;2023-07-20T05:58:35;94151.41;;;46.57;21.65
1926;BME280;964;42.606;23.588;2023-07-20T06:01:03;94154.69;;;46.44;20.87
1926;BME280;964;42.606;23.588;2023-07-20T06:03:31;94172.94;;;46.64;21.88
1926;BME280;964;42.606;23.588;2023-07-20T06:06:00;94164.16;;;46.79;21.10
1926;BME280;964;42.606;23.588;2023-07-20T06:08:27;94167.59;;;46.68;21.48
1926;BME280;964;42.606;23.588;2023-07-20T06:10:54;94171.41;;;47.04;21.19
1926;BME280;964;42.606;23.588;2023-07-20T06:13:20;94161.06;;;46.85;21.72
1926;BME280;964;42.606;23.588;2023-07-20T06:15:47;94159.81;;;46.67;21.66
1926;BME280;964;42.606;23.588;2023-07-20T06:18:14;94156.81;;;46.34;21.66
1926;BME280;964;42.606;23.588;2023-07-20T06:20:40;94153.00;;;46.29;21.31
1926;BME280;964;42.606;23.588;2023-07-20T06:23:08;94146.31;;;47.06;21.31
1926;BME280;964;42.606;23.588;2023-07-20T06:25:35;94148.75;;;47.21;21.44
1926;BME280;964;42.606;23.588;2023-07-20T06:28:01;94155.38;;;46.95;21.82
1926;BME280;964;42.606;23.588;2023-07-20T06:30:30;94150.88;;;47.11;21.27
1926;BME280;964;42.606;23.588;2023-07-20T06:32:56;94145.25;;;48.19;20.61
1926;BME280;964;42.606;23.588;2023-07-20T06:35:23;94143.88;;;47.76;20.65
1926;BME280;964;42.606;23.588;2023-07-20T06:37:50;94130.34;;;48.16;20.43
1926;BME280;964;42.606;23.588;2023-07-20T06:40:18;94129.81;;;47.97;21.07
1926;BME280;964;42.606;23.588;2023-07-20T06:42:45;94128.00;;;47.26;20.83
1926;BME280;964;42.606;23.588;2023-07-20T06:45:11;94129.63;;;48.39;20.40
1926;BME280;964;42.606;23.588;2023-07-20T06:47:39;94124.53;;;48.71;19.96
1926;BME280;964;42.606;23.588;2023-07-20T06:50:07;94131.44;;;48.23;20.97
1926;BME280;964;42.606;23.588;2023-07-20T06:52:34;94122.78;;;48.89;20.97
1926;BME280;964;42.606;23.588;2023-07-20T06:55:00;94125.84;;;48.93;19.94
1926;BME280;964;42.606;23.588;2023-07-20T06:57:29;94136.50;;;48.83;20.05
1926;BME280;964;42.606;23.588;2023-07-20T06:59:55;94130.63;;;49.02;20.78
1926;BME280;964;42.606;23.588;2023-07-20T07:02:22;94133.69;;;49.06;20.22
1926;BME280;964;42.606;23.588;2023-07-20T07:04:49;94136.97;;;49.14;19.85
1926;BME280;964;42.606;23.588;2023-07-20T07:07:15;94131.94;;;49.61;19.37
1926;BME280;964;42.606;23.588;2023-07-20T07:09:42;94150.97;;;49.00;19.88
1926;BME280;964;42.606;23.588;2023-07-20T07:12:09;94134.38;;;50.56;18.80
1926;BME280;964;42.606;23.588;2023-07-20T07:14:37;94131.34;;;50.52;19.02
1926;BME280;964;42.606;23.588;2023-07-20T07:17:04;94151.50;;;49.96;19.28
1926;BME280;964;42.606;23.588;2023-07-20T07:19:31;94158.25;;;49.40;19.85
1926;BME280;964;42.606;23.588;2023-07-20T07:21:58;94159.22;;;50.07;19.55
1926;BME280;964;42.606;23.588;2023-07-20T07:24:24;94177.72;;;49.13;20.38
1926;BME280;964;42.606;23.588;2023-07-20T07:26:51;94165.03;;;49.60;19.70
1926;BME280;964;42.606;23.588;2023-07-20T07:29:17;94168.84;;;49.90;19.63
1926;BME280;964;42.606;23.588;2023-07-20T07:31:45;94182.75;;;50.00;18.80
1926;BME280;964;42.606;23.588;2023-07-20T07:34:12;94184.31;;;49.78;19.59
1926;BME280;964;42.606;23.588;2023-07-20T07:36:38;94195.91;;;49.58;19.18
1926;BME280;964;42.606;23.588;2023-07-20T07:39:05;94211.69;;;48.36;20.15
1926;BME280;964;42.606;23.588;2023-07-20T07:41:32;94208.31;;;48.16;20.09
1926;BME280;964;42.606;23.588;2023-07-20T07:43:58;94205.72;;;48.41;20.37
1926;BME280;964;42.606;23.588;2023-07-20T07:46:25;94208.44;;;49.32;19.45
1926;BME280;964;42.606;23.588;2023-07-20T07:48:53;94194.53;;;50.08;18.75
1926;BME280;964;42.606;23.588;2023-07-20T07:51:20;94186.91;;;49.99;18.92
1926;BME280;964;42.606;23.588;2023-07-20T07:53:46;94188.91;;;50.47;18.75
1926;BME280;964;42.606;23.588;2023-07-20T07:56:14;94168.16;;;50.68;18.94
1926;BME280;964;42.606;23.588;2023-07-20T07:58:42;94178.84;;;51.37;18.59
1926;BME280;964;42.606;23.588;2023-07-20T08:01:08;94179.94;;;50.25;19.44
1926;BME280;964;42.606;23.588;2023-07-20T08:03:35;94176.81;;;50.58;18.82
1926;BME280;964;42.606;23.588;2023-07-20T08:06:03;94156.66;;;50.64;18.84
1926;BME280;964;42.606;23.588;2023-07-20T08:08:31;94135.84;;;51.82;17.59
1926;BME280;964;42.606;23.588;2023-07-20T08:10:58;94125.19;;;52.57;17.70
1926;BME280;964;42.606;23.588;2023-07-20T08:13:24;94137.88;;;51.95;17.82
1926;BME280;964;42.606;23.588;2023-07-20T08:15:52;94136.69;;;52.61;16.51
1926;BME280;964;42.606;23.588;2023-07-20T08:18:19;94131.56;;;52.10;16.28
1926;BME280;964;42.606;23.588;2023-07-20T08:20:47;94131.19;;;52.33;16.67
1926;BME280;964;42.606;23.588;2023-07-20T08:23:15;94146.06;;;52.34;17.03
1926;BME280;964;42.606;23.588;2023-07-20T08:25:42;94158.19;;;52.05;16.70
1926;BME280;964;42.606;23.588;2023-07-20T08:28:10;94158.91;;;52.21;17.45
1926;BME280;964;42.606;23.588;2023-07-20T08:30:40;94176.41;;;51.59;17.41
1926;BME280;964;42.606;23.588;2023-07-20T08:33:07;94169.06;;;51.97;17.09
1926;BME280;964;42.606;23.588;2023-07-20T08:35:34;94170.59;;;51.28;17.98
1926;BME280;964;42.606;23.588;2023-07-20T08:38:01;94171.16;;;51.81;17.62
1926;BME280;964;42.606;23.588;2023-07-20T08:40:29;94166.88;;;51.66;17.14
1926;BME280;964;42.606;23.588;2023-07-20T08:42:56;94164.41;;;50.77;18.23
1926;BME280;964;42.606;23.588;2023-07-20T08:45:26;94147.66;;;52.37;17.23
1926;BME280;964;42.606;23.588;2023-07-20T08:47:55;94143.19;;;50.89;18.22
1926;BME280;964;42.606;23.588;2023-07-20T08:50:22;94173.81;;;50.03;18.88
1926;BME280;964;42.606;23.588;2023-07-20T08:52:52;94174.31;;;50.25;18.92
1926;BME280;964;42.606;23.588;2023-07-20T08:55:19;94163.59;;;50.10;18.79
1926;BME280;964;42.606;23.588;2023-07-20T08:57:49;94169.94;;;49.48;19.47
1926;BME280;964;42.606;23.588;2023-07-20T09:00:19;94163.22;;;50.16;18.91
1926;BME280;964;42.606;23.588;2023-07-20T09:02:47;94171.47;;;49.75;18.93
1926;BME280;964;42.606;23.588;2023-07-20T09:05:15;94171.72;;;48.49;20.63
1926;BME280;964;42.606;23.588;2023-07-20T09:07:42;94172.00;;;49.11;20.17
1926;BME280;964;42.606;23.588;2023-07-20T09:10:09;94174.84;;;48.20;21.21
1926;BME280;964;42.606;23.588;2023-07-20T09:12:37;94179.22;;;49.14;19.93
1926;BME280;964;42.606;23.588;2023-07-20T09:15:10;94188.72;;;47.95;21.53
1926;BME280;964;42.606;23.588;2023-07-20T09:17:37;94163.91;;;48.94;20.16
1926;BME280;964;42.606;23.588;2023-07-20T09:20:06;94153.97;;;49.76;20.10
1926;BME280;964;42.606;23.588;2023-07-20T09:22:36;94152.66;;;50.41;19.73
1926;BME280;964;42.606;23.588;2023-07-20T09:25:06;94164.75;;;48.38;20.13
1926;BME280;964;42.606;23.588;2023-07-20T09:27:36;94158.00;;;49.25;19.17
1926;BME280;964;42.606;23.588;2023-07-20T09:30:06;94160.03;;;48.64;19.19
1926;BME280;964;42.606;23.588;2023-07-20T09:32:38;94153.00;;;49.11;18.69
1926;BME280;964;42.606;23.588;2023-07-20T09:35:06;94145.78;;;49.94;18.39
1926;BME280;964;42.606;23.588;2023-07-20T09:37:33;94143.06;;;49.34;18.05
1926;BME280;964;42.606;23.588;2023-07-20T09:40:00;94142.22;;;49.68;18.05
1926;BME280;964;42.606;23.588;2023-07-20T09:42:27;94143.19;;;50.23;17.52
1926;BME280;964;42.606;23.588;2023-07-20T09:44:55;94141.25;;;50.14;17.27
1926;BME280;964;42.606;23.588;2023-07-20T09:47:24;94151.75;;;48.33;18.15
1926;BME280;964;42.606;23.588;2023-07-20T09:49:58;94149.00;;;49.03;17.25
1926;BME280;964;42.606;23.588;2023-07-20T09:52:25;94143.53;;;49.79;16.73
1926;BME280;964;42.606;23.588;2023-07-20T09:54:52;94135.84;;;50.18;16.59
1926;BME280;964;42.606;23.588;2023-07-20T09:57:21;94140.00;;;49.67;17.29
1926;BME280;964;42.606;23.588;2023-07-20T09:59:48;94126.03;;;51.13;16.83
1926;BME280;964;42.606;23.588;2023-07-20T10:02:20;94130.53;;;50.77;16.54
1926;BME280;964;42.606;23.588;2023-07-20T10:04:49;94117.59;;;51.85;16.16
1926;BME280;964;42.606;23.588;2023-07-20T10:07:19;94120.06;;;51.63;15.77
1926;BME280;964;42.606;23.588;2023-07-20T10:10:07;94108.31;;;51.98;16.10
1926;BME280;964;42.606;23.588;2023-07-20T10:12:44;94113.88;;;51.67;16.37
1926;BME280;964;42.606;23.588;2023-07-20T10:15:15;94097.25;;;51.16;16.82
1926;BME280;964;42.606;23.588;2023-07-20T10:17:53;94098.00;;;51.89;16.10
1926;BME280;964;42.606;23.588;2023-07-20T10:20:26;94099.81;;;51.53;16.38
1926;BME280;964;42.606;23.588;2023-07-20T10:22:54;94094.88;;;51.11;16.47
1926;BME280;964;42.606;23.588;2023-07-20T10:25:23;94086.34;;;50.15;17.12
1926;BME280;964;42.606;23.588;2023-07-20T10:27:50;94095.69;;;49.55;17.31
1926;BME280;964;42.606;23.588;2023-07-20T10:30:17;94097.44;;;49.49;17.92
1926;BME280;964;42.606;23.588;2023-07-20T10:32:44;94103.50;;;49.69;17.39
1926;BME280;964;42.606;23.588;2023-07-20T10:35:12;94106.91;;;49.30;17.66
1926;BME280;964;42.606;23.588;2023-07-20T10:37:52;94112.84;;;50.10;16.77
1926;BME280;964;42.606;23.588;2023-07-20T10:40:32;94106.50;;;51.03;16.67
1926;BME280;964;42.606;23.588;2023-07-20T10:43:03;94124.00;;;49.57;17.17
1926;BME280;964;42.606;23.588;2023-07-20T10:45:48;94118.09;;;50.29;16.98
1926;BME280;964;42.606;23.588;2023-07-20T10:48:19;94114.53;;;49.65;17.21
1926;BME280;964;42.606;23.588;2023-07-20T10:51:09;94114.63;;;49.92;17.15
1926;BME280;964;42.606;23.588;2023-07-20T10:53:37;94103.50;;;49.69;17.15
1926;BME280;964;42.606;23.588;2023-07-20T10:56:08;94101.03;;;50.52;16.37
1926;BME280;964;42.606;23.588;2023-07-20T10:58:37;94102.09;;;51.00;16.58
1926;BME280;964;42.606;23.588;2023-07-20T11:01:04;94091.59;;;51.16;15.85
1926;BME280;964;42.606;23.588;2023-07-20T11:03:33;94090.78;;;51.00;15.63
1926;BME280;964;42.606;23.588;2023-07-20T11:06:29;94076.97;;;51.63;15.54
1926;BME280;964;42.606;23.588;2023-07-20T11:09:05;94032.31;;;51.75;15.22
1926;BME280;964;42.606;23.588;2023-07-20T11:11:33;94035.88;;;51.75;16.10
1926;BME280;964;42.606;23.588;2023-07-20T11:14:01;94048.44;;;51.00;16.55
1926;BME280;964;42.606;23.588;2023-07-20T11:16:39;94062.25;;;50.80;15.71
1926;BME280;964;42.606;23.588;2023-07-20T11:19:14;94063.19;;;50.58;16.65
1926;BME280;964;42.606;23.588;2023-07-20T11:21:42;94047.97;;;50.10;16.05
1926;BME280;964;42.606;23.588;2023-07-20T11:24:10;94026.00;;;50.75;15.44
1926;BME280;964;42.606;23.588;2023-07-20T11:26:43;94040.91;;;51.47;15.53
1926;BME280;964;42.606;23.588;2023-07-20T11:29:10;94029.53;;;52.37;15.13
1926;BME280;964;42.606;23.588;2023-07-20T11:31:38;94027.50;;;52.40;15.04
1926;BME280;964;42.606;23.588;2023-07-20T11:34:05;94029.31;;;52.98;14.80
1926;BME280;964;42.606;23.588;2023-07-20T11:36:33;94033.19;;;52.89;14.49
1926;BME280;964;42.606;23.588;2023-07-20T11:39:00;94035.91;;;53.20;14.17
1926;BME280;964;42.606;23.588;2023-07-20T11:41:31;94033.38;;;52.28;14.40
1926;BME280;964;42.606;23.588;2023-07-20T11:43:58;94032.22;;;51.88;15.11
1926;BME280;964;42.606;23.588;2023-07-20T11:46:25;94024.50;;;52.20;15.01
1926;BME280;964;42.606;23.588;2023-07-20T11:48:56;94014.63;;;52.21;15.26
1926;BME280;964;42.606;23.588;2023-07-20T11:51:24;94014.53;;;52.51;15.13
1926;BME280;964;42.606;23.588;2023-07-20T11:53:50;94004.50;;;53.85;14.10
1926;BME280;964;42.606;23.588;2023-07-20T11:56:17;93996.00;;;53.67;14.44
1926;BME280;964;42.606;23.588;2023-07-20T11:58:46;93994.44;;;53.82;15.36
1926;BME280;964;42.606;23.588;2023-07-20T12:01:13;93997.09;;;54.15;14.04
1926;BME280;964;42.606;23.588;2023-07-20T12:03:42;93983.81;;;55.01;14.08
1926;BME280;964;42.606;23.588;2023-07-20T12:06:08;93990.59;;;53.56;14.87
1926;BME280;964;42.606;23.588;2023-07-20T12:08:38;93997.88;;;53.08;14.79
1926;BME280;964;42.606;23.588;2023-07-20T12:11:05;93992.47;;;53.67;15.15
1926;BME280;964;42.606;23.588;2023-07-20T12:13:38;93996.69;;;52.97;14.88
1926;BME280;964;42.606;23.588;2023-07-20T12:16:13;93993.34;;;53.18;14.87
1926;BME280;964;42.606;23.588;2023-07-20T12:18:40;93991.44;;;53.60;15.26
1926;BME280;964;42.606;23.588;2023-07-20T12:21:07;93971.06;;;54.41;14.99
1926;BME280;964;42.606;23.588;2023-07-20T12:23:35;93963.81;;;54.36;14.23
1926;BME280;964;42.606;23.588;2023-07-20T12:26:03;93975.03;;;54.73;14.80
1926;BME280;964;42.606;23.588;2023-07-20T12:28:32;93960.84;;;55.16;14.48
1926;BME280;964;42.606;23.588;2023-07-20T12:30:58;93967.88;;;55.13;14.63
1926;BME280;964;42.606;23.588;2023-07-20T12:33:28;93951.06;;;56.40;14.11
1926;BME280;964;42.606;23.588;2023-07-20T12:35:54;93944.47;;;55.60;14.33
1926;BME280;964;42.606;23.588;2023-07-20T12:38:23;93954.47;;;55.16;13.92
1926;BME280;964;42.606;23.588;2023-07-20T12:40:50;93951.22;;;54.82;14.44
1926;BME280;964;42.606;23.588;2023-07-20T12:43:17;93962.16;;;53.91;14.86
1926;BME280;964;42.606;23.588;2023-07-20T12:45:43;93948.91;;;54.98;14.70
1926;BME280;964;42.606;23.588;2023-07-20T12:48:10;93950.75;;;54.90;14.40
1926;BME280;964;42.606;23.588;2023-07-20T12:50:38;93953.78;;;54.33;14.49
1926;BME280;964;42.606;23.588;2023-07-20T12:53:05;93956.50;;;53.91;14.23
1926;BME280;964;42.606;23.588;2023-07-20T12:55:32;93950.34;;;53.79;14.80
1926;BME280;964;42.606;23.588;2023-07-20T12:57:58;93948.97;;;53.07;14.65
1926;BME280;964;42.606;23.588;2023-07-20T13:00:25;93942.50;;;53.22;14.96
1926;BME280;964;42.606;23.588;2023-07-20T13:02:52;93957.78;;;52.47;14.91
1926;BME280;964;42.606;23.588;2023-07-20T13:05:19;93941.94;;;53.44;14.32
1926;BME280;964;42.606;23.588;2023-07-20T13:07:47;93936.63;;;53.91;14.08
1926;BME280;964;42.606;23.588;2023-07-20T13:10:13;93937.94;;;53.88;14.35
1926;BME280;964;42.606;23.588;2023-07-20T13:12:40;93935.03;;;53.13;14.82
1926;BME280;964;42.606;23.588;2023-07-20T13:15:08;93943.72;;;53.17;14.79
1926;BME280;964;42.606;23.588;2023-07-20T13:17:36;93949.03;;;51.78;15.54
1926;BME280;964;42.606;23.588;2023-07-20T13:20:05;93953.19;;;52.39;15.38
1926;BME280;964;42.606;23.588;2023-07-20T13:22:33;93948.06;;;52.85;15.09
1926;BME280;964;42.606;23.588;2023-07-20T13:25:01;93926.44;;;52.76;15.13
1926;BME280;964;42.606;23.588;2023-07-20T13:27:31;93928.66;;;53.30;14.63
1926;BME280;964;42.606;23.588;2023-07-20T13:29:58;93921.88;;;54.14;14.65
1926;BME280;964;42.606;23.588;2023-07-20T13:32:25;93929.78;;;53.06;14.61
1926;BME280;964;42.606;23.588;2023-07-20T13:34:52;93943.69;;;52.49;14.61
1926;BME280;964;42.606;23.588;2023-07-20T13:37:19;93923.03;;;51.97;14.81
1926;BME280;964;42.606;23.588;2023-07-20T13:39:47;93931.25;;;52.56;14.67
1926;BME280;964;42.606;23.588;2023-07-20T13:42:15;93928.56;;;51.32;14.91